M I D A S
Marine Information and Data Acquisition System
Tripno 393 of the Zeeleeuw from 2002-11-12 07:59:55 to 2002-11-12 11:26:10
Back to CruiseResearch ActivitiesStationsMapUnderway DataData graphs

EquipmentUnitsComment
TimeDGPSUTC
LatitudeDGPSDM.mWGS84
LongitudeDGPSDM.mWGS84
HeadingGyrodeg 
SOGDGPSknotsSpeed over ground
COGDGPSdegCourse over ground
DepthEcho soundermeters200 kHz
Missing or incorrect values are displayed as -999
Navigation data collected by the RV Zeeleeuw from 2002-11-12 07:59:55 to 2002-11-12 11:26:10
Time Latitude Longitude Heading SOG COG Depth
2002-11-12 08:00:59 51°13.832 2°55.634 204.2 5.3 331.1 12.1
2002-11-12 08:01:59 51°13.921 2°55.566 208.5 6.5 335.8 11.3
2002-11-12 08:02:59 51°14.03 2°55.485 207.5 7.5 334.1 11.1
2002-11-12 08:03:59 51°14.144 2°55.396 207.3 7.7 333.5 11.2
2002-11-12 08:04:58 51°14.247 2°55.275 190.3 7.9 317.3 11.3
2002-11-12 08:05:59 51°14.334 2°55.112 182.8 8.1 308.6 11.2
2002-11-12 08:06:59 51°14.416 2°54.896 160.2 9.9 290.9 11.7
2002-11-12 08:07:59 51°14.424 2°54.612 138 11 267.8 11.9
2002-11-12 08:08:59 51°14.36 2°54.352 115 10.6 242.9 10.5
2002-11-12 08:09:58 51°14.279 2°54.105 114.8 10.6 242.8 10.3
2002-11-12 08:10:59 51°14.196 2°53.848 115 10.8 243 10.3
2002-11-12 08:11:58 51°14.116 2°53.598 115.2 10.7 243 10.5
2002-11-12 08:12:59 51°14.034 2°53.34 117.2 10.8 243.6 10.7
2002-11-12 08:13:59 51°13.962 2°53.078 118.3 10.8 246.2 11.1
2002-11-12 08:14:59 51°13.887 2°52.817 116.3 10.8 244.1 11.4
2002-11-12 08:15:59 51°13.808 2°52.559 116.2 10.8 244.4 11.5
2002-11-12 08:16:59 51°13.729 2°52.299 116.5 10.9 243.9 11.7
2002-11-12 08:17:59 51°13.65 2°52.039 116.5 10.9 243.8 11.8
2002-11-12 08:18:59 51°13.569 2°51.779 116.5 10.9 243.8 11.8
2002-11-12 08:19:59 51°13.49 2°51.519 117 10.9 243.9 12
2002-11-12 08:20:58 51°13.41 2°51.264 117.2 10.9 244.2 12.1
2002-11-12 08:21:59 51°13.328 2°51.006 116 10.8 242.8 12.2
2002-11-12 08:22:59 51°13.248 2°50.752 116.3 10.8 243 12.3
2002-11-12 08:23:59 51°13.168 2°50.494 116.5 10.8 244.2 12.3
2002-11-12 08:24:59 51°13.087 2°50.238 114.7 10.8 242.5 12.4
2002-11-12 08:25:59 51°13.002 2°49.986 114.3 10.7 242.2 12.5
2002-11-12 08:26:59 51°12.917 2°49.734 114.5 10.8 242.4 12.6
2002-11-12 08:27:59 51°12.834 2°49.479 115.5 10.8 243.5 12.7
2002-11-12 08:28:59 51°12.752 2°49.225 115.8 10.8 243.4 12.8
2002-11-12 08:29:58 51°12.672 2°48.973 115.7 10.8 243.6 12.9
2002-11-12 08:30:59 51°12.588 2°48.715 115.7 10.7 242.2 13.1
2002-11-12 08:31:59 51°12.505 2°48.459 115.7 10.9 242.7 13.2
2002-11-12 08:32:59 51°12.423 2°48.204 115.3 10.7 242.8 13.2
2002-11-12 08:33:59 51°12.34 2°47.949 115.8 10.8 243 13.4
2002-11-12 08:34:59 51°12.258 2°47.694 115.7 10.8 243.1 13.4
2002-11-12 08:35:59 51°12.177 2°47.438 115.7 10.8 242.9 13.5
2002-11-12 08:36:59 51°12.095 2°47.181 115.8 10.9 243.1 13.5
2002-11-12 08:37:59 51°12.013 2°46.927 115.2 10.8 242.4 13.5
2002-11-12 08:38:59 51°11.932 2°46.674 115.5 10.7 243.1 13.6
2002-11-12 08:39:59 51°11.851 2°46.42 115.3 10.8 242.9 13.6
2002-11-12 08:40:59 51°11.77 2°46.164 115.7 10.8 243.5 13.6
2002-11-12 08:41:59 51°11.69 2°45.91 115.7 10.7 244.1 13.5
2002-11-12 08:42:59 51°11.61 2°45.657 115.5 10.7 243.4 13.4
2002-11-12 08:43:58 51°11.532 2°45.406 117.5 10.8 245 13.3
2002-11-12 08:44:59 51°11.46 2°45.137 119 10.9 247.5 13.2
2002-11-12 08:45:59 51°11.392 2°44.872 120.3 10.8 248.4 13.1
2002-11-12 08:46:59 51°11.328 2°44.604 121 10.9 249.4 13.2
2002-11-12 08:47:59 51°11.263 2°44.334 121.2 11 249.4 13.1
2002-11-12 08:48:59 51°11.198 2°44.061 120.7 11 249.8 13
2002-11-12 08:49:59 51°11.133 2°43.79 120.5 11 248.6 13
2002-11-12 08:50:59 51°11.076 2°43.537 130.5 8.3 255 13.1
2002-11-12 08:51:59 51°11.115 2°43.416 204.2 4.8 330 13.2
2002-11-12 08:52:59 51°11.185 2°43.437 276 4.3 35.4 13.4
2002-11-12 08:53:59 51°11.212 2°43.531 316.7 4.2 74.2 13.5
2002-11-12 08:54:59 51°11.221 2°43.645 341 4.2 94.4 13.4
2002-11-12 08:55:59 51°11.198 2°43.743 9.7 3.8 121.8 13.3
2002-11-12 08:57:00 51°11.202 2°43.764 11.2 1.2 8.9 -999
2002-11-12 08:57:59 51°11.211 2°43.788 345.7 1.3 69 13.3
2002-11-12 08:58:59 51°11.222 2°43.82 341.8 1.3 60.7 13.3
2002-11-12 08:59:59 51°11.228 2°43.846 343.5 1.1 55.7 13.3
2002-11-12 09:00:59 51°11.24 2°43.868 337.8 1.1 48.7 13.3
2002-11-12 09:01:59 51°11.253 2°43.89 333.8 1.1 45.7 13.4
2002-11-12 09:02:59 51°11.267 2°43.911 330.7 1.2 41.7 13.4
2002-11-12 09:03:59 51°11.282 2°43.93 328.8 1.1 36.8 13.4
2002-11-12 09:04:59 51°11.297 2°43.949 325 1.2 36.4 13.4
2002-11-12 09:05:58 51°11.311 2°43.968 324.7 1.1 40.7 13.4
2002-11-12 09:06:59 51°11.326 2°43.986 325.2 1.1 38.9 13.4
2002-11-12 09:07:58 51°11.34 2°44.002 327 1 38.4 13.4
2002-11-12 09:08:59 51°11.352 2°44.03 339.2 1.2 58.5 13.4
2002-11-12 09:09:59 51°11.363 2°44.054 338 1.1 49.7 13.4
2002-11-12 09:10:59 51°11.376 2°44.075 333.7 1.1 43.9 13.4
2002-11-12 09:11:59 51°11.39 2°44.095 333.8 1.1 40.6 13.4
2002-11-12 09:12:59 51°11.402 2°44.113 337.3 1 43.5 13.4
2002-11-12 09:13:59 51°11.415 2°44.132 337.2 1 44.1 13.4
2002-11-12 09:14:59 51°11.43 2°44.149 334 1.1 35.2 13.4
2002-11-12 09:15:59 51°11.446 2°44.166 331.8 1.1 35.1 13.4
2002-11-12 09:16:59 51°11.46 2°44.183 332.2 1.1 32.8 13.4
2002-11-12 09:17:59 51°11.474 2°44.198 333.2 1 31 13.4
2002-11-12 09:18:59 51°11.49 2°44.216 329.5 1.1 34.5 13.4
2002-11-12 09:19:58 51°11.499 2°44.25 343.8 3 91.4 13.4
2002-11-12 09:20:58 51°11.431 2°44.29 82 5.8 200.5 13.2
2002-11-12 09:21:59 51°11.357 2°44.046 119.2 12.5 248.1 13.1
2002-11-12 09:22:59 51°11.276 2°43.724 120.7 13.2 249 13
2002-11-12 09:23:59 51°11.185 2°43.405 113.3 13.3 241.9 12.9
2002-11-12 09:24:59 51°11.074 2°43.107 109.3 13.1 237.9 12.9
2002-11-12 09:25:59 51°10.958 2°42.811 110.2 13.2 237.5 12.7
2002-11-12 09:26:59 51°10.84 2°42.513 110 13.2 238.2 12.4
2002-11-12 09:27:59 51°10.723 2°42.215 110.5 13.3 238.1 12.2
2002-11-12 09:28:59 51°10.612 2°41.927 110.3 11.9 238.7 12.1
2002-11-12 09:29:59 51°10.52 2°41.667 113.8 11.3 241.9 11.9
2002-11-12 09:30:59 51°10.433 2°41.408 113.7 11.1 241.8 11.7
2002-11-12 09:31:58 51°10.348 2°41.153 113.3 11.2 241.8 11.5
2002-11-12 09:32:59 51°10.259 2°40.89 113.7 11.2 241.8 11.4
2002-11-12 09:33:59 51°10.171 2°40.63 113.7 11.2 242.3 11.3
2002-11-12 09:34:59 51°10.084 2°40.369 113.5 11.2 242 11.1
2002-11-12 09:35:59 51°9.995 2°40.107 113.7 11.3 241.9 11
2002-11-12 09:36:59 51°9.907 2°39.846 113.5 11.1 241.6 11
2002-11-12 09:37:58 51°9.822 2°39.59 113.3 11.2 241.4 10.8
2002-11-12 09:38:59 51°9.732 2°39.326 113.3 11.2 241.6 10.7
2002-11-12 09:39:59 51°9.65 2°39.059 116.7 11.2 245 10.8
2002-11-12 09:40:59 51°9.572 2°38.79 116.8 11.2 245.3 10.9
2002-11-12 09:41:59 51°9.494 2°38.521 116.5 11.2 244.8 10.9
2002-11-12 09:42:59 51°9.416 2°38.254 116.7 11.1 245.3 10.8
2002-11-12 09:43:59 51°9.337 2°37.986 116.8 11.2 245.2 10.7
2002-11-12 09:44:59 51°9.262 2°37.715 120 11.2 247.8 10.6
2002-11-12 09:45:59 51°9.192 2°37.439 119.7 11.2 247.7 10.5
2002-11-12 09:46:59 51°9.122 2°37.162 122.3 11.2 249.8 10.3
2002-11-12 09:47:59 51°9.066 2°36.876 124.8 11.3 253 10.3
2002-11-12 09:48:59 51°9.011 2°36.588 124.7 11.4 253.1 10.4
2002-11-12 09:49:59 51°8.955 2°36.299 124.7 11.4 252.3 10.7
2002-11-12 09:50:59 51°8.898 2°36.012 124.8 11.3 252.2 11.3
2002-11-12 09:51:59 51°8.841 2°35.723 124.7 11.4 252.4 12.1
2002-11-12 09:52:59 51°8.783 2°35.436 124.5 11.5 252.3 12.8
2002-11-12 09:53:59 51°8.759 2°35.14 154.2 11.5 277.5 15
2002-11-12 09:54:59 51°8.832 2°34.856 177.5 11.7 300.1 16.4
2002-11-12 09:55:59 51°8.971 2°34.638 199.8 11.8 322.9 16.3
2002-11-12 09:56:59 51°9.149 2°34.515 223 11.7 346.3 16.4
2002-11-12 09:57:59 51°9.342 2°34.502 240.7 11.7 4.9 17.8
2002-11-12 09:58:59 51°9.538 2°34.529 239.2 11.9 4.7 18.7
2002-11-12 09:59:59 51°9.736 2°34.546 238.2 12 3 13.7
2002-11-12 10:00:59 51°9.934 2°34.58 241.5 12 6.9 10.7
2002-11-12 10:01:59 51°10.124 2°34.665 264.5 11.9 26.3 10.6
2002-11-12 10:02:59 51°10.281 2°34.851 280.3 11.7 42.3 9.9
2002-11-12 10:03:59 51°10.415 2°35.078 283.7 11.8 46.5 9.5
2002-11-12 10:04:59 51°10.549 2°35.305 285.2 11.8 46.6 9.6
2002-11-12 10:05:59 51°10.68 2°35.537 285.5 11.7 47.9 9.9
2002-11-12 10:06:59 51°10.803 2°35.775 289 11.6 52.6 10.4
2002-11-12 10:07:59 51°10.919 2°36.023 289.3 11.7 52.8 10.7
2002-11-12 10:08:59 51°11.034 2°36.273 290.2 11.7 53.5 11.4
2002-11-12 10:09:59 51°11.15 2°36.521 290.3 11.7 53.8 11.9
2002-11-12 10:10:59 51°11.259 2°36.776 292.5 11.7 55.2 12.7
2002-11-12 10:11:59 51°11.367 2°37.031 292.7 11.5 55.5 13.3
2002-11-12 10:12:59 51°11.475 2°37.284 292.8 11.5 55.8 13.5
2002-11-12 10:13:59 51°11.584 2°37.536 292.7 11.7 54.8 13.7
2002-11-12 10:14:59 51°11.694 2°37.79 292.7 11.6 54.2 13.7
2002-11-12 10:15:59 51°11.803 2°38.044 292.5 11.6 56 13.7
2002-11-12 10:16:59 51°11.913 2°38.296 292.5 11.6 54.8 13.3
2002-11-12 10:17:59 51°12.022 2°38.551 293.7 11.6 56.2 13.1
2002-11-12 10:18:59 51°12.131 2°38.804 293.2 11.6 55.7 12.8
2002-11-12 10:19:59 51°12.24 2°39.058 291.5 11.6 54.4 12.6
2002-11-12 10:20:59 51°12.35 2°39.31 293.5 11.6 56.2 12.4
2002-11-12 10:21:59 51°12.45 2°39.571 297.2 11.4 59.6 12.4
2002-11-12 10:22:59 51°12.541 2°39.839 298.8 11.5 61.6 11.9
2002-11-12 10:23:59 51°12.631 2°40.107 299.2 11.5 62 12.3
2002-11-12 10:24:59 51°12.721 2°40.375 300.3 11.5 63 12.1
2002-11-12 10:25:59 51°12.808 2°40.643 299.3 11.4 61.1 12.5
2002-11-12 10:26:59 51°12.894 2°40.911 299.5 11.3 63.2 12.6
2002-11-12 10:27:59 51°12.979 2°41.178 302 11.1 63.9 12.7
2002-11-12 10:28:59 51°13.063 2°41.445 299.8 11.4 62.5 12.6
2002-11-12 10:29:59 51°13.148 2°41.712 300 11.3 62.4 12.5
2002-11-12 10:30:59 51°13.234 2°41.981 301 11.5 63.4 12.2
2002-11-12 10:31:59 51°13.321 2°42.252 301 11.4 62.7 12
2002-11-12 10:32:59 51°13.409 2°42.522 299.7 11.5 62.1 11.9
2002-11-12 10:33:59 51°13.492 2°42.793 303.2 11.4 65.4 11.7
2002-11-12 10:34:59 51°13.565 2°43.069 305.7 11.3 67.9 11.2
2002-11-12 10:35:59 51°13.638 2°43.346 305.8 11.2 68 10.5
2002-11-12 10:36:59 51°13.713 2°43.623 304.2 11.4 66.6 9.8
2002-11-12 10:37:59 51°13.785 2°43.901 304.3 11.4 66.8 8.8
2002-11-12 10:38:59 51°13.858 2°44.177 304.3 11.4 66.7 8
2002-11-12 10:39:59 51°13.926 2°44.46 306.7 11.4 69 8.3
2002-11-12 10:40:59 51°13.995 2°44.744 306.2 11.4 68.8 9.7
2002-11-12 10:41:59 51°14.062 2°45.029 307.3 11.4 69.6 11.1
2002-11-12 10:42:59 51°14.128 2°45.314 306 11.4 69.1 11.8
2002-11-12 10:43:59 51°14.197 2°45.599 306.8 11.5 69.4 12.4
2002-11-12 10:44:59 51°14.264 2°45.887 307 11.6 70.3 12.5
2002-11-12 10:45:59 51°14.33 2°46.172 306 11.5 68.9 12.5
2002-11-12 10:46:59 51°14.397 2°46.455 307 11.3 69.3 12.4
2002-11-12 10:47:59 51°14.462 2°46.739 306.8 11.4 70.3 12.1
2002-11-12 10:48:59 51°14.527 2°47.026 307.5 11.5 71.4 11.8
2002-11-12 10:49:59 51°14.592 2°47.311 306.3 11.4 70.2 11.4
2002-11-12 10:50:59 51°14.655 2°47.594 306.7 11.3 70 11.3
2002-11-12 10:51:59 51°14.719 2°47.879 306.8 11.4 71.4 11.4
2002-11-12 10:52:59 51°14.781 2°48.164 308.2 11.3 71.2 11.8
2002-11-12 10:53:59 51°14.846 2°48.453 307 11.7 71.2 12.1
2002-11-12 10:54:59 51°14.913 2°48.74 305.3 11.7 69.2 12.3
2002-11-12 10:55:59 51°14.977 2°49.026 306.2 11.3 69.7 12.5
2002-11-12 10:56:59 51°15.034 2°49.274 306.8 9.2 70.5 12.6
2002-11-12 10:57:59 51°15.08 2°49.474 307.7 7.6 69.2 12.7
2002-11-12 10:58:59 51°15.118 2°49.642 311.2 5.7 72 12.7
2002-11-12 10:59:59 51°15.148 2°49.768 307.3 4.8 66.2 12.7
2002-11-12 11:00:59 51°15.179 2°49.881 307.3 4.5 65.5 12.8
2002-11-12 11:01:59 51°15.227 2°50.059 303.7 9.9 66.2 12.7
2002-11-12 11:02:59 51°15.292 2°50.331 309.7 11.4 73.4 12.6
2002-11-12 11:03:59 51°15.321 2°50.624 321.2 11.2 84.7 12.6
2002-11-12 11:04:59 51°15.321 2°50.919 329 11.2 93.9 12.5
2002-11-12 11:05:59 51°15.304 2°51.209 333.7 10.9 97.3 12.3
2002-11-12 11:06:59 51°15.281 2°51.499 331.3 11 96.5 11.9
2002-11-12 11:07:59 51°15.249 2°51.783 337.8 10.8 103.4 11.6
2002-11-12 11:08:59 51°15.199 2°52.063 341.3 10.9 107.2 11.3
2002-11-12 11:09:59 51°15.127 2°52.326 349.7 10.8 116.2 10.9
2002-11-12 11:10:59 51°15.043 2°52.576 348.8 10.8 115.8 10.4
2002-11-12 11:11:59 51°14.966 2°52.834 350 10.6 115.6 9.9
2002-11-12 11:12:59 51°14.886 2°53.091 348.5 10.8 115.3 9.6
2002-11-12 11:13:59 51°14.815 2°53.358 346.8 11 113 9.7
2002-11-12 11:14:59 51°14.749 2°53.626 347.2 10.9 112.6 9.5
2002-11-12 11:15:59 51°14.681 2°53.89 347 10.8 112.7 10.3
2002-11-12 11:16:59 51°14.619 2°54.161 343.8 10.8 110 10.3
2002-11-12 11:17:59 51°14.556 2°54.422 345.2 10.2 111.6 10
2002-11-12 11:18:59 51°14.491 2°54.668 348.5 10 114.4 10.2
2002-11-12 11:19:59 51°14.417 2°54.906 351.2 9.9 117.7 10.1
2002-11-12 11:20:58 51°14.335 2°55.124 357.7 9 123.3 9.4
2002-11-12 11:21:59 51°14.263 2°55.262 7.8 5.7 133.7 9.6
2002-11-12 11:22:59 51°14.2 2°55.348 18.3 4.6 142.1 9.6
2002-11-12 11:23:59 51°14.137 2°55.404 28.7 4.2 154.2 9.7
2002-11-12 11:24:59 51°14.073 2°55.452 29.5 4.3 155.7 9
2002-11-12 11:25:59 51°14.005 2°55.499 28.7 4.5 155.3 9.3